This is the latest recevied weather packets stored in our database for station/object N6GPM. If no packets are shown the sender has not sent any weather packets the latest 10 day(s).
| Time | Temp. | Humidity | Pressure | Rain* | Wind** | Luminosity | Snow |
|---|---|---|---|---|---|---|---|
| 1777925530 | 16.11° C | 56% | 1018.6 hPa | 0 mm | - | 454 W/m² | - |
| 1777924620 | 15.56° C | 57% | 1018.8 hPa | 0 mm | - | 358 W/m² | - |
| 1777924013 | 15.56° C | 57% | 1019.2 hPa | 0 mm | - | 281 W/m² | - |
| 1777923103 | 16.11° C | 59% | 1019 hPa | 0 mm | - | 307 W/m² | - |
| 1777922499 | 15.56° C | 59% | 1019 hPa | 0 mm | - | 326 W/m² | - |
| 1777922197 | 15.56° C | 60% | 1019.2 hPa | 0 mm | - | 361 W/m² | - |
| 1777921893 | 15.56° C | 60% | 1019.4 hPa | 0 mm | - | 299 W/m² | - |
| 1777921286 | 15.56° C | 61% | 1019 hPa | 0 mm | - | 170 W/m² | - |
| 1777917349 | 16.11° C | 59% | 1019.2 hPa | 0 mm | - | 909 W/m² | - |
| 1777914924 | 15° C | 66% | 1018.9 hPa | 0 mm | - | 498 W/m² | - |
| 1777910677 | 13.33° C | 68% | 1018.5 hPa | 0 mm | - | 370 W/m² | - |
| 1777909161 | 12.78° C | 70% | 1018.7 hPa | 0 mm | - | 207 W/m² | - |
| 1777908859 | 12.78° C | 70% | 1018.4 hPa | 0 mm | - | 172 W/m² | - |
| 1777908556 | 12.78° C | 70% | 1018.4 hPa | 0 mm | - | 163 W/m² | - |
| 1777908253 | 12.78° C | 71% | 1018.5 hPa | 0 mm | - | 191 W/m² | - |
| 1777907340 | 12.22° C | 73% | 1018.2 hPa | 0 mm | - | 171 W/m² | - |
| 1777907037 | 12.22° C | 73% | 1018.3 hPa | 0 mm | - | 186 W/m² | - |
| 1777906735 | 12.22° C | 74% | 1018.5 hPa | 0 mm | - | 118 W/m² | - |
| 1777906431 | 11.67° C | 75% | 1018.5 hPa | 0 mm | - | 112 W/m² | - |
| 1777906128 | 11.67° C | 75% | 1018.5 hPa | 0 mm | - | 159 W/m² | - |
| 1777905824 | 11.67° C | 75% | 1018.3 hPa | 0 mm | - | 105 W/m² | - |
| 1777905522 | 11.67° C | 75% | 1018.4 hPa | 0 mm | - | 177 W/m² | - |
| 1777905218 | 11.67° C | 75% | 1018.4 hPa | 0 mm | - | 127 W/m² | - |
| 1777904916 | 11.67° C | 75% | 1018.4 hPa | 0 mm | - | 101 W/m² | - |
| 1777904613 | 11.67° C | 75% | 1018.1 hPa | 0 mm | - | 110 W/m² | - |
* Rain latest hour (hover to see other rain measurements)
** Current wind speed in m/s (hover to see current wind gust speed)